Time;durP1;ratioP1;P1;durP2;ratioP2;P2;SDS_P1;SDS_P2;PMS_P1;PMS_P2;Temp;Humidity;BMP_temperature;BMP_pressure;BME280_temperature;BME280_humidity;BME280_pressure;Samples;Min_cycle;Max_cycle;Signal;HPM_P1;HPM_P2
2024/01/16 00:01:30;;;;;;;10.07;2.17;;;23.10;99.90;;;;;;5074665;28;20203;-76
2024/01/16 00:04:03;;;;;;;13.88;2.35;;;23.20;99.90;;;;;;5064297;28;20228;-75
2024/01/16 00:06:34;;;;;;;13.35;2.53;;;23.30;99.90;;;;;;5049485;28;20791;-76
2024/01/16 00:09:06;;;;;;;8.68;2.20;;;23.40;99.90;;;;;;5048338;28;20590;-76
2024/01/16 00:11:41;;;;;;;9.80;2.33;;;23.50;99.90;;;;;;5053090;28;20207;-76
2024/01/16 00:14:12;;;;;;;13.43;2.45;;;23.50;99.90;;;;;;5052973;28;20647;-76
2024/01/16 00:16:46;;;;;;;13.57;2.30;;;23.60;99.90;;;;;;5070727;28;20223;-76
2024/01/16 00:19:17;;;;;;;14.50;2.55;;;23.80;99.90;;;;;;5083914;28;20206;-78
2024/01/16 00:21:49;;;;;;;11.85;2.65;;;23.80;99.90;;;;;;5060524;28;20206;-78
2024/01/16 00:24:21;;;;;;;11.95;2.42;;;23.90;99.90;;;;;;5067486;28;20201;-78
2024/01/16 00:26:52;;;;;;;15.85;2.90;;;24.10;99.90;;;;;;5065915;28;20211;-78
2024/01/16 00:29:23;;;;;;;12.65;2.63;;;24.10;99.90;;;;;;5069335;28;20704;-78
2024/01/16 00:31:54;;;;;;;10.63;2.38;;;24.10;99.90;;;;;;5070640;28;20246;-78
2024/01/16 00:34:25;;;;;;;9.00;1.85;;;24.20;99.90;;;;;;5063160;28;20232;-78
2024/01/16 00:36:55;;;;;;;11.68;2.30;;;24.10;99.90;;;;;;5069036;28;21540;-78
2024/01/16 00:39:28;;;;;;;11.13;2.50;;;24.10;99.90;;;;;;5052602;28;20201;-77
2024/01/16 00:42:00;;;;;;;11.60;2.10;;;24.10;99.90;;;;;;5056038;28;20204;-77
2024/01/16 00:44:31;;;;;;;8.15;1.67;;;24.00;99.90;;;;;;5072589;28;20211;-77
2024/01/16 00:47:02;;;;;;;10.63;2.20;;;24.00;99.90;;;;;;5072551;28;20206;-77
2024/01/16 00:49:32;;;;;;;11.30;2.40;;;23.90;99.90;;;;;;5072342;28;20254;-78
2024/01/16 00:52:03;;;;;;;7.72;1.70;;;23.90;99.90;;;;;;5053799;28;20204;-78
2024/01/16 00:54:36;;;;;;;10.10;2.00;;;23.90;99.90;;;;;;5070962;28;20223;-78
2024/01/16 00:57:07;;;;;;;10.50;2.75;;;23.90;99.90;;;;;;5060983;28;20569;-78
2024/01/16 00:59:37;;;;;;;9.95;2.47;;;23.90;99.90;;;;;;5052104;28;20588;-78
2024/01/16 01:02:09;;;;;;;11.95;2.58;;;23.90;99.90;;;;;;5052353;28;20226;-78
2024/01/16 01:04:41;;;;;;;6.85;1.90;;;23.90;99.90;;;;;;5052932;28;20200;-76
2024/01/16 01:07:15;;;;;;;11.45;2.35;;;23.90;99.90;;;;;;5074295;28;20300;-77
2024/01/16 01:09:47;;;;;;;9.40;1.95;;;23.90;99.90;;;;;;5091086;28;20684;-78
2024/01/16 01:12:18;;;;;;;10.95;2.42;;;24.00;99.90;;;;;;5072134;28;20558;-78
2024/01/16 01:14:52;;;;;;;8.63;2.08;;;24.00;99.90;;;;;;5089729;28;20306;-77
2024/01/16 01:17:23;;;;;;;13.10;2.35;;;23.90;99.90;;;;;;5063375;28;20208;-78
2024/01/16 01:19:53;;;;;;;10.23;2.15;;;23.90;99.90;;;;;;5055875;28;20200;-79
2024/01/16 01:22:24;;;;;;;10.57;2.10;;;23.80;99.90;;;;;;5077524;28;20193;-78
2024/01/16 01:24:57;;;;;;;9.05;1.65;;;23.70;99.90;;;;;;5081010;28;20231;-76
2024/01/16 01:27:28;;;;;;;7.95;1.92;;;23.70;99.90;;;;;;5073855;28;20195;-79
2024/01/16 01:29:58;;;;;;;9.80;2.05;;;23.60;99.90;;;;;;5078462;28;20192;-79
2024/01/16 01:32:29;;;;;;;8.27;2.20;;;23.60;99.90;;;;;;5068320;28;20203;-79
2024/01/16 01:35:00;;;;;;;8.73;2.30;;;23.50;99.90;;;;;;5081849;28;20223;-78
2024/01/16 01:37:31;;;;;;;9.30;2.10;;;23.40;99.90;;;;;;5074247;28;20207;-78
2024/01/16 01:40:03;;;;;;;8.27;2.05;;;23.40;99.90;;;;;;5063755;28;20548;-78
2024/01/16 01:42:34;;;;;;;9.73;2.33;;;23.30;99.90;;;;;;5069095;28;20204;-78
2024/01/16 01:45:05;;;;;;;7.50;2.15;;;23.20;99.90;;;;;;5072666;28;20647;-79
2024/01/16 01:47:36;;;;;;;10.43;2.15;;;23.20;99.90;;;;;;5051345;28;20201;-79
2024/01/16 01:50:08;;;;;;;9.40;2.00;;;23.30;99.90;;;;;;5069027;28;20658;-77
2024/01/16 01:52:41;;;;;;;12.55;2.40;;;23.40;99.90;;;;;;5070401;28;20204;-78
2024/01/16 01:55:16;;;;;;;12.40;2.53;;;23.30;99.90;;;;;;5059640;28;20231;-78
2024/01/16 01:57:47;;;;;;;9.40;2.13;;;23.40;99.90;;;;;;5050841;28;20216;-78
2024/01/16 02:00:17;;;;;;;13.05;2.75;;;23.40;99.90;;;;;;5068921;28;20660;-77
2024/01/16 02:02:48;;;;;;;12.70;2.83;;;23.40;99.90;;;;;;5071117;28;20661;-78
2024/01/16 02:05:19;;;;;;;14.07;2.50;;;23.60;99.90;;;;;;5070677;28;20203;-78
2024/01/16 02:07:50;;;;;;;13.88;2.60;;;23.50;99.90;;;;;;5069755;28;20203;-78
2024/01/16 02:10:23;;;;;;;11.52;2.55;;;23.50;99.90;;;;;;5065084;28;20188;-78
2024/01/16 02:12:53;;;;;;;9.32;2.60;;;23.60;99.90;;;;;;5065509;28;20573;-78
2024/01/16 02:15:25;;;;;;;12.73;2.70;;;23.80;99.90;;;;;;5071329;28;20310;-78
2024/01/16 02:17:56;;;;;;;11.18;2.33;;;24.00;99.90;;;;;;5070578;28;20227;-78
2024/01/16 02:20:27;;;;;;;10.80;2.58;;;24.10;99.90;;;;;;5070942;28;20196;-77
2024/01/16 02:23:02;;;;;;;10.07;2.47;;;24.30;99.90;;;;;;5070721;28;20238;-77
2024/01/16 02:25:35;;;;;;;8.80;2.00;;;24.30;99.90;;;;;;5078952;28;20199;-77
2024/01/16 02:28:06;;;;;;;10.55;2.40;;;24.40;99.90;;;;;;5081519;28;20690;-77
2024/01/16 02:30:37;;;;;;;10.02;2.17;;;24.60;99.90;;;;;;5055687;28;20575;-78
2024/01/16 02:33:08;;;;;;;7.00;1.80;;;24.80;99.90;;;;;;5067029;28;20206;-77
2024/01/16 02:35:39;;;;;;;12.40;2.55;;;24.80;99.90;;;;;;5061868;28;20235;-78
2024/01/16 02:38:09;;;;;;;6.70;2.00;;;25.00;99.90;;;;;;5065925;28;20196;-78
2024/01/16 02:40:42;;;;;;;12.63;2.67;;;24.90;99.90;;;;;;5066956;28;20206;-78
2024/01/16 02:43:13;;;;;;;8.40;1.85;;;25.10;99.90;;;;;;5049977;28;20200;-78
2024/01/16 02:45:44;;;;;;;10.18;2.35;;;25.20;99.90;;;;;;5050368;28;20667;-78
2024/01/16 02:48:14;;;;;;;10.23;2.53;;;25.30;99.90;;;;;;5050296;28;20659;-78
2024/01/16 02:50:46;;;;;;;10.13;2.58;;;25.20;99.90;;;;;;5063410;28;21266;-79
2024/01/16 02:53:16;;;;;;;10.52;2.70;;;25.10;99.90;;;;;;5070270;28;20559;-78
2024/01/16 02:55:49;;;;;;;7.47;2.10;;;25.00;99.90;;;;;;5070097;28;20227;-78
2024/01/16 02:58:20;;;;;;;11.38;2.65;;;24.90;99.90;;;;;;5068929;28;20199;-78
2024/01/16 03:00:51;;;;;;;10.25;2.38;;;24.80;99.90;;;;;;5070176;28;20662;-78
2024/01/16 03:03:21;;;;;;;11.13;2.70;;;24.80;99.90;;;;;;5086074;28;20249;-77
2024/01/16 03:05:52;;;;;;;10.00;2.40;;;25.00;99.90;;;;;;5085420;28;20223;-78
2024/01/16 03:08:23;;;;;;;11.18;2.15;;;25.20;99.90;;;;;;5087577;28;20195;-77
2024/01/16 03:10:56;;;;;;;12.23;2.35;;;25.40;99.90;;;;;;5086343;28;20219;-78
2024/01/16 03:13:27;;;;;;;8.90;2.40;;;25.60;99.90;;;;;;5077291;28;20200;-78
2024/01/16 03:15:57;;;;;;;9.07;2.60;;;25.70;99.90;;;;;;5050998;28;20247;-78
2024/01/16 03:18:28;;;;;;;13.45;2.70;;;25.70;99.90;;;;;;5090069;28;20215;-79
2024/01/16 03:21:00;;;;;;;11.60;2.50;;;25.70;99.90;;;;;;5086466;28;20203;-79
2024/01/16 03:23:31;;;;;;;8.40;2.08;;;25.50;99.90;;;;;;5090033;28;20199;-79
2024/01/16 03:26:04;;;;;;;10.68;2.30;;;25.50;99.90;;;;;;5089927;28;20202;-79
2024/01/16 03:28:34;;;;;;;13.88;2.88;;;25.50;99.90;;;;;;5067926;28;20200;-79
2024/01/16 03:31:08;;;;;;;12.57;2.40;;;25.50;99.90;;;;;;5052229;28;20568;-78
2024/01/16 03:33:41;;;;;;;11.95;2.40;;;25.40;99.90;;;;;;5051709;28;20197;-78
2024/01/16 03:36:12;;;;;;;9.30;2.05;;;25.30;99.90;;;;;;5051457;28;20224;-78
2024/01/16 03:38:45;;;;;;;9.32;1.90;;;25.20;99.90;;;;;;5049276;28;20283;-78
2024/01/16 03:41:17;;;;;;;13.52;2.58;;;25.20;99.90;;;;;;5075647;28;20198;-79
2024/01/16 03:43:48;;;;;;;13.10;2.38;;;25.10;99.90;;;;;;5078090;28;20202;-79
2024/01/16 03:46:19;;;;;;;10.52;2.50;;;25.00;99.90;;;;;;5073933;28;20211;-79
2024/01/16 03:48:50;;;;;;;9.13;2.17;;;25.00;99.90;;;;;;5074631;28;20204;-77
2024/01/16 03:51:20;;;;;;;11.88;2.47;;;25.00;99.90;;;;;;5072233;28;20421;-76
2024/01/16 03:53:51;;;;;;;11.13;2.22;;;25.10;99.90;;;;;;5060256;28;20192;-76
2024/01/16 03:56:24;;;;;;;10.32;2.33;;;25.10;99.90;;;;;;5073677;28;20224;-78
2024/01/16 03:58:55;;;;;;;14.75;2.63;;;25.10;99.90;;;;;;5073886;28;20203;-78
2024/01/16 04:01:36;;;;;;;10.15;2.10;;;25.10;99.90;;;;;;5073675;28;20200;-77
2024/01/16 04:04:06;;;;;;;14.23;2.60;;;25.10;99.90;;;;;;5073286;28;20198;-77
2024/01/16 04:06:37;;;;;;;11.32;2.25;;;25.20;99.90;;;;;;5061192;28;20236;-78
2024/01/16 04:09:08;;;;;;;10.55;2.25;;;25.20;99.90;;;;;;5066149;28;20283;-78
2024/01/16 04:11:41;;;;;;;8.93;2.03;;;25.20;99.90;;;;;;5091901;28;20235;-79
2024/01/16 04:14:12;;;;;;;10.90;2.50;;;25.20;99.90;;;;;;5072956;28;20196;-78
2024/01/16 04:16:42;;;;;;;8.60;1.90;;;25.30;99.90;;;;;;5092324;28;20231;-77
2024/01/16 04:19:13;;;;;;;10.48;2.20;;;25.30;99.90;;;;;;5089489;28;20192;-78
2024/01/16 04:21:44;;;;;;;8.23;2.25;;;25.30;99.90;;;;;;5091652;28;20576;-77
2024/01/16 04:24:15;;;;;;;12.73;2.25;;;25.30;99.90;;;;;;5059290;28;20207;-78
2024/01/16 04:26:48;;;;;;;6.72;2.08;;;25.30;99.90;;;;;;5075447;28;20203;-78
2024/01/16 04:29:18;;;;;;;9.63;2.20;;;25.40;99.90;;;;;;5090177;28;20200;-79
2024/01/16 04:31:49;;;;;;;9.65;2.20;;;25.50;99.90;;;;;;5087765;28;20211;-78
2024/01/16 04:34:20;;;;;;;10.20;2.05;;;25.50;99.90;;;;;;5067983;28;20659;-78
2024/01/16 04:36:51;;;;;;;9.45;2.17;;;25.60;99.90;;;;;;5070737;28;20224;-78
2024/01/16 04:39:22;;;;;;;9.63;2.15;;;25.70;99.90;;;;;;5069679;28;20202;-77
2024/01/16 04:41:55;;;;;;;9.02;1.85;;;25.80;99.90;;;;;;5062045;28;20563;-78
2024/01/16 04:44:25;;;;;;;10.68;2.20;;;25.90;99.90;;;;;;5075456;28;20196;-78
2024/01/16 04:46:56;;;;;;;11.57;2.20;;;25.80;99.90;;;;;;5090535;28;20229;-78
2024/01/16 04:49:27;;;;;;;10.68;2.25;;;25.80;99.90;;;;;;5092689;28;20195;-79
2024/01/16 04:51:57;;;;;;;11.35;2.58;;;25.70;99.90;;;;;;5069659;28;20224;-78
2024/01/16 04:54:28;;;;;;;9.60;2.00;;;25.70;99.90;;;;;;5064717;28;20199;-78
2024/01/16 04:57:01;;;;;;;11.35;2.15;;;25.70;99.90;;;;;;5059889;28;20254;-78
2024/01/16 04:59:32;;;;;;;9.25;2.08;;;25.70;99.90;;;;;;5052569;28;20223;-78
2024/01/16 05:02:03;;;;;;;9.75;2.10;;;25.50;99.90;;;;;;5066402;28;20184;-78
2024/01/16 05:04:34;;;;;;;11.18;2.53;;;25.50;99.90;;;;;;5072408;28;20218;-78
2024/01/16 05:07:04;;;;;;;10.82;2.10;;;25.60;99.90;;;;;;5054937;28;20225;-79
2024/01/16 05:09:35;;;;;;;11.40;2.13;;;25.60;99.90;;;;;;5072073;28;20200;-78
2024/01/16 05:12:08;;;;;;;11.30;2.10;;;25.60;99.90;;;;;;5064427;28;20663;-78
2024/01/16 05:14:39;;;;;;;10.02;2.08;;;25.60;99.90;;;;;;5061164;28;20192;-78
2024/01/16 05:17:10;;;;;;;10.65;2.05;;;25.50;99.90;;;;;;5061391;28;20306;-79
2024/01/16 05:19:41;;;;;;;10.93;2.08;;;25.50;99.90;;;;;;5081597;28;20210;-78
2024/01/16 05:22:13;;;;;;;11.38;2.40;;;25.40;99.90;;;;;;5069371;28;20538;-78
2024/01/16 05:24:47;;;;;;;9.40;2.40;;;25.30;99.90;;;;;;5090106;28;20206;-78
2024/01/16 05:27:19;;;;;;;10.75;2.67;;;25.20;99.90;;;;;;5051711;28;20188;-78
2024/01/16 05:29:50;;;;;;;11.48;2.47;;;25.20;99.90;;;;;;5077501;28;20282;-78
2024/01/16 05:32:21;;;;;;;11.18;2.53;;;25.00;99.90;;;;;;5085825;28;20195;-78
2024/01/16 05:34:51;;;;;;;8.32;2.17;;;24.80;99.90;;;;;;5092234;28;20225;-79
2024/01/16 05:37:23;;;;;;;10.70;2.13;;;24.70;99.90;;;;;;5070766;28;20196;-79
2024/01/16 05:39:53;;;;;;;11.52;2.53;;;24.50;99.90;;;;;;5066059;28;20199;-79
2024/01/16 05:42:26;;;;;;;11.50;2.35;;;24.50;99.90;;;;;;5091948;28;20257;-79
2024/01/16 05:44:57;;;;;;;10.30;2.67;;;24.50;99.90;;;;;;5062188;28;20198;-79
2024/01/16 05:47:28;;;;;;;9.15;2.10;;;24.50;99.90;;;;;;5052043;28;20209;-79
2024/01/16 05:49:59;;;;;;;11.32;2.45;;;24.50;99.90;;;;;;5051037;28;20200;-79
2024/01/16 05:52:31;;;;;;;13.73;2.60;;;24.50;99.90;;;;;;5056433;28;20713;-79
2024/01/16 05:55:02;;;;;;;11.10;2.50;;;24.50;99.90;;;;;;5075138;28;20191;-79
2024/01/16 05:57:35;;;;;;;11.38;2.35;;;24.50;99.90;;;;;;5070448;28;20279;-79
2024/01/16 06:00:07;;;;;;;14.55;3.22;;;24.50;99.90;;;;;;5063313;28;20193;-78
2024/01/16 06:02:37;;;;;;;9.63;2.25;;;24.60;99.90;;;;;;5051061;28;20200;-78
2024/01/16 06:05:08;;;;;;;12.88;2.40;;;24.60;99.90;;;;;;5055787;28;20678;-77
2024/01/16 06:07:39;;;;;;;10.82;2.55;;;24.70;99.90;;;;;;5069022;28;20227;-78
2024/01/16 06:10:11;;;;;;;10.50;2.67;;;24.70;99.90;;;;;;5071035;28;20196;-79
2024/01/16 06:12:43;;;;;;;9.75;2.10;;;24.80;99.90;;;;;;5057833;28;20196;-77
2024/01/16 06:15:14;;;;;;;10.70;2.22;;;24.90;99.90;;;;;;5068215;28;20200;-78
2024/01/16 06:17:45;;;;;;;11.48;2.25;;;24.90;99.90;;;;;;5070899;28;20568;-78
2024/01/16 06:20:16;;;;;;;15.15;2.92;;;24.80;99.90;;;;;;5070729;28;20655;-78
2024/01/16 06:22:46;;;;;;;10.35;2.50;;;24.80;99.90;;;;;;5066399;28;20211;-81
2024/01/16 06:25:20;;;;;;;9.93;2.35;;;24.80;99.90;;;;;;5062886;28;20241;-78
2024/01/16 06:27:52;;;;;;;17.75;3.00;;;24.90;99.90;;;;;;5080370;28;20311;-78
2024/01/16 06:30:24;;;;;;;11.27;2.30;;;24.90;99.90;;;;;;5050198;28;20200;-78
2024/01/16 06:32:54;;;;;;;13.35;2.75;;;24.90;99.90;;;;;;5051089;28;20197;-78
2024/01/16 06:35:25;;;;;;;10.82;2.67;;;25.00;99.90;;;;;;5050869;28;20227;-78
2024/01/16 06:37:56;;;;;;;12.32;2.50;;;25.00;99.90;;;;;;5051568;28;20240;-78
2024/01/16 06:40:26;;;;;;;10.38;2.75;;;25.10;99.90;;;;;;5050523;28;20659;-78
2024/01/16 06:42:59;;;;;;;17.08;3.03;;;25.20;99.90;;;;;;5050645;28;20207;-78
2024/01/16 06:45:30;;;;;;;14.40;3.17;;;25.20;99.90;;;;;;5050607;28;20208;-79
2024/01/16 06:48:03;;;;;;;14.68;2.97;;;25.30;99.90;;;;;;5049609;28;20600;-77
2024/01/16 06:50:37;;;;;;;11.55;2.45;;;25.30;99.90;;;;;;5050300;28;20204;-77
2024/01/16 06:53:08;;;;;;;19.40;3.28;;;25.30;99.90;;;;;;5050417;28;20196;-78
2024/01/16 06:55:39;;;;;;;17.27;3.15;;;25.50;99.90;;;;;;5050698;28;20221;-78
2024/01/16 06:58:11;;;;;;;12.13;2.75;;;25.50;99.90;;;;;;5050320;28;20685;-77
2024/01/16 07:00:42;;;;;;;15.07;2.75;;;25.50;99.90;;;;;;5050259;28;20547;-78
2024/01/16 07:03:13;;;;;;;13.10;2.65;;;25.50;99.90;;;;;;5049537;28;20199;-78
2024/01/16 07:05:43;;;;;;;17.23;2.65;;;25.50;99.90;;;;;;5050048;28;20231;-78
2024/01/16 07:08:14;;;;;;;14.32;2.88;;;25.50;99.90;;;;;;5050617;28;20197;-78
2024/01/16 07:10:48;;;;;;;14.80;3.13;;;25.60;99.90;;;;;;5051769;28;20199;-78
2024/01/16 07:13:20;;;;;;;13.52;2.83;;;25.60;99.90;;;;;;5063487;28;20677;-78
2024/01/16 07:15:51;;;;;;;9.63;2.38;;;25.70;99.90;;;;;;5070097;28;20676;-78
2024/01/16 07:18:22;;;;;;;15.60;2.60;;;25.80;99.90;;;;;;5070019;28;20210;-77
2024/01/16 07:20:52;;;;;;;15.70;2.63;;;25.80;99.90;;;;;;5055344;28;20235;-78
2024/01/16 07:23:23;;;;;;;10.60;2.60;;;25.80;99.90;;;;;;5061700;28;20202;-77
2024/01/16 07:25:54;;;;;;;16.55;2.95;;;25.80;99.90;;;;;;5064947;28;20682;-77
2024/01/16 07:28:26;;;;;;;13.43;2.65;;;25.80;99.90;;;;;;5050404;28;20196;-77
2024/01/16 07:30:57;;;;;;;16.45;2.25;;;25.70;99.90;;;;;;5069193;28;20542;-77
2024/01/16 07:33:28;;;;;;;12.98;2.65;;;25.70;99.90;;;;;;5069775;28;20208;-77
2024/01/16 07:35:59;;;;;;;18.25;2.67;;;25.60;99.90;;;;;;5059673;28;20213;-78
2024/01/16 07:38:30;;;;;;;11.98;2.80;;;25.60;99.90;;;;;;5049772;28;20203;-77
2024/01/16 07:41:00;;;;;;;19.00;3.63;;;25.50;99.90;;;;;;5049844;28;20507;-78
2024/01/16 07:43:34;;;;;;;13.48;2.70;;;25.50;99.90;;;;;;5049904;28;20204;-78
2024/01/16 07:46:05;;;;;;;12.27;2.50;;;25.50;99.90;;;;;;5050396;28;20285;-78
2024/01/16 07:48:35;;;;;;;15.77;2.97;;;25.40;99.90;;;;;;5049842;28;20283;-78
2024/01/16 07:51:06;;;;;;;10.18;2.70;;;25.40;99.90;;;;;;5049862;28;20197;-78
2024/01/16 07:53:37;;;;;;;14.55;3.15;;;25.40;99.90;;;;;;5048827;28;20197;-78
2024/01/16 07:56:09;;;;;;;14.77;2.92;;;25.40;99.90;;;;;;5049694;28;20229;-78
2024/01/16 07:58:41;;;;;;;11.80;2.65;;;25.30;99.90;;;;;;5049210;28;20196;-77
2024/01/16 08:01:12;;;;;;;15.23;2.78;;;25.30;99.90;;;;;;5057445;28;20285;-78
2024/01/16 08:03:43;;;;;;;11.77;2.88;;;25.30;99.90;;;;;;5054472;28;20192;-77
2024/01/16 08:06:13;;;;;;;14.68;2.65;;;25.30;99.90;;;;;;5069650;28;20224;-78
2024/01/16 08:08:44;;;;;;;14.02;3.05;;;25.20;99.90;;;;;;5069616;28;20202;-78
2024/01/16 08:11:15;;;;;;;15.45;2.70;;;25.20;99.90;;;;;;5069625;28;20196;-78
2024/01/16 08:13:48;;;;;;;12.68;2.35;;;25.20;99.90;;;;;;5067805;28;20199;-78
2024/01/16 08:16:18;;;;;;;14.45;2.70;;;25.20;99.90;;;;;;5069165;28;20627;-79
2024/01/16 08:18:49;;;;;;;13.48;2.53;;;25.20;99.90;;;;;;5049974;28;20647;-78
2024/01/16 08:21:20;;;;;;;16.27;2.90;;;25.20;99.90;;;;;;5053695;28;20201;-78
2024/01/16 08:23:51;;;;;;;18.17;3.10;;;25.20;99.90;;;;;;5050709;28;20201;-77
2024/01/16 08:26:21;;;;;;;10.05;2.40;;;25.20;99.90;;;;;;5069548;28;20208;-79
2024/01/16 08:28:54;;;;;;;15.77;2.72;;;25.10;99.90;;;;;;5063559;28;20232;-78
2024/01/16 08:31:27;;;;;;;11.23;2.50;;;25.10;99.90;;;;;;5052074;28;20193;-77
2024/01/16 08:33:58;;;;;;;15.82;3.13;;;25.10;99.90;;;;;;5073231;28;20294;-78
2024/01/16 08:36:29;;;;;;;15.90;3.33;;;25.10;99.90;;;;;;5072898;28;20226;-77
2024/01/16 08:38:59;;;;;;;10.15;2.92;;;25.10;99.90;;;;;;5072287;28;20575;-77
2024/01/16 08:41:30;;;;;;;13.40;2.65;;;25.00;99.90;;;;;;5072874;28;20635;-77
2024/01/16 08:44:03;;;;;;;15.25;3.08;;;25.00;99.90;;;;;;5072773;28;20195;-77
2024/01/16 08:46:37;;;;;;;13.13;2.60;;;25.00;99.90;;;;;;5065019;28;20208;-77
2024/01/16 08:49:09;;;;;;;15.13;2.90;;;25.00;99.90;;;;;;5052580;28;20197;-77
2024/01/16 08:51:41;;;;;;;13.18;2.78;;;24.90;99.90;;;;;;5052586;28;20577;-77
2024/01/16 08:54:11;;;;;;;12.65;2.75;;;24.90;99.90;;;;;;5053188;28;20236;-77
2024/01/16 08:56:42;;;;;;;12.52;2.88;;;24.90;99.90;;;;;;5052447;28;20226;-77
2024/01/16 08:59:15;;;;;;;9.52;2.20;;;24.90;99.90;;;;;;5052964;28;20207;-78
2024/01/16 09:01:45;;;;;;;17.05;3.30;;;24.90;99.90;;;;;;5051621;28;20701;-78
2024/01/16 09:04:16;;;;;;;15.65;3.08;;;24.90;99.90;;;;;;5052590;28;20193;-78
2024/01/16 09:06:47;;;;;;;12.48;2.90;;;24.80;99.90;;;;;;5052267;28;20244;-78
2024/01/16 09:09:18;;;;;;;15.40;2.78;;;24.90;99.90;;;;;;5064214;28;20200;-78
2024/01/16 09:11:49;;;;;;;14.40;2.85;;;24.80;99.90;;;;;;5071554;28;20204;-78
2024/01/16 09:14:22;;;;;;;12.90;3.20;;;24.80;99.90;;;;;;5072311;28;20246;-78
2024/01/16 09:16:53;;;;;;;12.43;2.83;;;24.80;99.90;;;;;;5072237;28;20232;-78
2024/01/16 09:19:24;;;;;;;14.05;3.00;;;24.80;99.90;;;;;;5067732;28;20193;-78
2024/01/16 09:21:58;;;;;;;14.13;2.80;;;24.80;99.90;;;;;;5052689;28;20197;-78
2024/01/16 09:24:29;;;;;;;13.70;2.70;;;24.80;99.90;;;;;;5052153;28;20309;-78
2024/01/16 09:27:06;;;;;;;13.05;2.70;;;24.80;99.90;;;;;;5052005;28;20689;-78
2024/01/16 09:29:41;;;;;;;15.02;3.20;;;24.80;99.90;;;;;;5052614;28;20200;-79
2024/01/16 09:32:12;;;;;;;15.13;2.78;;;24.80;99.90;;;;;;5052018;28;20203;-79
2024/01/16 09:34:43;;;;;;;9.88;2.58;;;24.80;99.90;;;;;;5050979;28;20705;-79
2024/01/16 09:37:14;;;;;;;15.35;3.40;;;24.80;99.90;;;;;;5051606;28;20706;-79
2024/01/16 09:39:45;;;;;;;16.23;2.85;;;24.80;99.90;;;;;;5051649;28;20203;-78
2024/01/16 09:42:16;;;;;;;11.82;2.78;;;24.80;99.90;;;;;;5051737;28;20193;-78
2024/01/16 09:44:50;;;;;;;13.30;2.85;;;24.80;99.90;;;;;;5052223;28;20192;-78
2024/01/16 09:47:21;;;;;;;9.82;2.55;;;24.70;99.90;;;;;;5053112;28;20682;-78
2024/01/16 09:49:52;;;;;;;14.35;2.50;;;24.70;99.90;;;;;;5051786;28;20200;-78
2024/01/16 09:52:23;;;;;;;14.55;2.65;;;24.70;99.90;;;;;;5050839;28;20662;-78
2024/01/16 09:54:54;;;;;;;11.77;2.67;;;24.70;99.90;;;;;;5051741;28;20192;-78
2024/01/16 09:57:27;;;;;;;12.82;2.78;;;24.70;99.90;;;;;;5051899;28;20231;-78
2024/01/16 10:00:03;;;;;;;13.63;2.90;;;24.70;99.90;;;;;;5051704;28;20197;-78
2024/01/16 10:02:34;;;;;;;9.82;2.70;;;24.70;99.90;;;;;;5051952;28;20254;-78
2024/01/16 10:05:05;;;;;;;9.48;2.38;;;24.70;99.90;;;;;;5051254;28;20663;-78
2024/01/16 10:07:37;;;;;;;12.52;2.78;;;24.70;99.90;;;;;;5065066;28;20701;-78
2024/01/16 10:10:10;;;;;;;12.52;2.65;;;24.60;99.90;;;;;;5091303;28;20566;-78
2024/01/16 10:12:42;;;;;;;10.80;2.45;;;24.60;99.90;;;;;;5070881;28;20199;-78
2024/01/16 10:15:18;;;;;;;10.57;2.20;;;24.60;99.90;;;;;;5051065;28;20659;-78
2024/01/16 10:17:49;;;;;;;6.97;2.30;;;24.50;99.90;;;;;;5050777;28;20804;-78
2024/01/16 10:20:33;;;;;;;12.13;3.00;;;24.60;99.90;;;;;;5051619;28;20208;-77
2024/01/16 10:23:05;;;;;;;9.45;2.60;;;24.50;99.90;;;;;;5053277;28;20676;-77
2024/01/16 10:25:37;;;;;;;12.02;2.80;;;24.50;99.90;;;;;;5061922;28;20192;-77
2024/01/16 10:28:11;;;;;;;12.52;2.60;;;24.50;99.90;;;;;;5051073;28;20570;-77
2024/01/16 10:30:47;;;;;;;11.95;2.70;;;24.50;99.90;;;;;;5067726;28;20199;-77
2024/01/16 10:33:18;;;;;;;12.35;2.72;;;24.50;99.90;;;;;;5070609;28;20274;-78
2024/01/16 10:35:49;;;;;;;14.10;2.83;;;24.50;99.90;;;;;;5069299;28;20199;-77
2024/01/16 10:38:25;;;;;;;13.40;2.63;;;24.50;99.90;;;;;;5050704;28;20232;-78
2024/01/16 10:41:10;;;;;;;11.50;2.60;;;24.50;99.90;;;;;;5050752;28;20195;-78
2024/01/16 10:43:42;;;;;;;10.05;2.22;;;24.50;99.90;;;;;;5065667;28;20193;-78
2024/01/16 10:46:18;;;;;;;13.13;2.72;;;24.50;99.90;;;;;;5051622;28;20197;-77
2024/01/16 10:49:02;;;;;;;11.23;2.58;;;24.40;99.90;;;;;;5066950;28;20656;-78
2024/01/16 10:51:33;;;;;;;18.42;3.05;;;24.40;99.90;;;;;;5088369;28;20199;-77
2024/01/16 10:54:05;;;;;;;15.75;2.70;;;24.40;99.90;;;;;;5060646;28;20208;-77
2024/01/16 10:56:36;;;;;;;11.80;2.67;;;24.40;99.90;;;;;;5050276;28;20197;-77
2024/01/16 10:59:14;;;;;;;13.05;2.50;;;24.40;99.90;;;;;;5088307;28;20201;-77
2024/01/16 11:01:52;;;;;;;14.63;2.88;;;24.40;99.90;;;;;;5060210;28;20196;-77
2024/01/16 11:04:25;;;;;;;11.60;2.55;;;24.40;99.90;;;;;;5083027;28;20199;-78
2024/01/16 11:06:58;;;;;;;12.27;2.40;;;24.40;99.90;;;;;;5069153;28;20250;-78
2024/01/16 11:09:32;;;;;;;12.25;2.67;;;24.40;99.90;;;;;;5090521;28;20565;-77
2024/01/16 11:12:04;;;;;;;12.95;2.60;;;24.40;99.90;;;;;;5071415;28;20290;-78
2024/01/16 11:14:36;;;;;;;12.13;2.45;;;24.40;99.90;;;;;;5070423;28;20200;-78
2024/01/16 11:17:13;;;;;;;14.80;2.97;;;24.50;99.90;;;;;;5053176;28;20216;-78
2024/01/16 11:19:44;;;;;;;13.27;2.45;;;24.50;99.90;;;;;;5069656;28;20604;-78
2024/01/16 11:22:16;;;;;;;17.30;3.13;;;24.50;99.90;;;;;;5090166;28;20191;-78
2024/01/16 11:24:47;;;;;;;13.43;2.35;;;24.50;99.90;;;;;;5078335;28;20200;-78
2024/01/16 11:27:26;;;;;;;14.93;3.03;;;24.50;99.90;;;;;;5060928;28;20207;-78
2024/01/16 11:29:57;;;;;;;13.40;3.08;;;24.50;99.90;;;;;;5070557;28;20202;-78
2024/01/16 11:32:40;;;;;;;20.00;3.47;;;24.50;99.90;;;;;;5053094;28;20192;-79
2024/01/16 11:35:11;;;;;;;15.00;2.70;;;24.50;99.90;;;;;;5062706;28;20219;-79
2024/01/16 11:37:44;;;;;;;13.77;3.00;;;24.50;99.90;;;;;;5070297;28;20224;-79
2024/01/16 11:40:36;;;;;;;15.32;2.72;;;24.50;99.90;;;;;;5069817;28;20618;-78
2024/01/16 11:43:39;;;;;;;15.30;3.05;;;24.50;99.90;;;;;;5069784;28;20200;-79
2024/01/16 11:46:10;;;;;;;16.75;3.35;;;24.40;99.90;;;;;;5047389;28;20590;-79
2024/01/16 11:48:43;;;;;;;12.48;2.63;;;24.50;99.90;;;;;;5048485;28;20200;-79
2024/01/16 11:51:30;;;;;;;14.18;3.03;;;24.40;99.90;;;;;;5055400;28;20225;-78
2024/01/16 11:54:01;;;;;;;17.90;3.20;;;24.40;99.90;;;;;;5086586;28;20199;-79
2024/01/16 11:56:58;;;;;;;16.63;3.58;;;24.40;99.90;;;;;;5078874;28;20196;-79
2024/01/16 12:00:01;;;;;;;18.67;2.92;;;24.40;99.90;;;;;;5062827;28;20546;-79
2024/01/16 12:02:44;;;;;;;16.63;2.97;;;24.40;99.90;;;;;;5072935;28;20286;-78
2024/01/16 12:05:17;;;;;;;14.07;2.97;;;24.40;99.90;;;;;;5089806;28;20195;-78
2024/01/16 12:07:50;;;;;;;12.75;2.88;;;24.40;99.90;;;;;;5073605;28;20586;-78
2024/01/16 12:10:22;;;;;;;14.50;3.08;;;24.40;99.90;;;;;;5072649;28;20204;-78
2024/01/16 12:12:53;;;;;;;18.52;3.33;;;24.40;99.90;;;;;;5073364;28;20199;-78
2024/01/16 12:15:25;;;;;;;15.65;2.83;;;24.40;99.90;;;;;;5075311;28;20195;-79
2024/01/16 12:17:57;;;;;;;15.85;2.70;;;24.50;99.90;;;;;;5066912;28;20228;-79
2024/01/16 12:20:32;;;;;;;18.45;2.92;;;24.40;99.90;;;;;;5053704;28;20197;-79
2024/01/16 12:23:03;;;;;;;15.18;2.83;;;24.40;99.90;;;;;;5077053;28;20573;-79
2024/01/16 12:25:35;;;;;;;15.23;3.05;;;24.40;99.90;;;;;;5071428;28;20207;-78
2024/01/16 12:28:07;;;;;;;18.58;3.83;;;24.40;99.90;;;;;;5056700;28;20192;-78
2024/01/16 12:30:41;;;;;;;19.75;3.42;;;24.40;99.90;;;;;;5052981;28;20647;-78
2024/01/16 12:33:13;;;;;;;16.25;3.78;;;24.40;99.90;;;;;;5066945;28;20191;-79
2024/01/16 12:35:46;;;;;;;17.48;3.35;;;24.40;99.90;;;;;;5072171;28;20221;-78
2024/01/16 12:38:17;;;;;;;15.25;3.03;;;24.40;99.90;;;;;;5066626;28;20686;-78
2024/01/16 12:40:51;;;;;;;14.75;3.55;;;24.50;99.90;;;;;;5071516;28;20199;-79
2024/01/16 12:43:22;;;;;;;16.00;3.40;;;24.40;99.90;;;;;;5064054;28;20685;-79
2024/01/16 12:45:59;;;;;;;16.20;3.45;;;24.50;99.90;;;;;;5073416;28;20196;-79
2024/01/16 12:48:30;;;;;;;16.02;3.38;;;24.50;99.90;;;;;;5073505;28;20199;-78
2024/01/16 12:51:06;;;;;;;18.83;3.63;;;24.50;99.90;;;;;;5090896;28;20204;-79
2024/01/16 12:53:39;;;;;;;16.52;3.50;;;24.50;99.90;;;;;;5059195;28;20200;-78
2024/01/16 12:56:11;;;;;;;16.50;3.65;;;24.50;99.90;;;;;;5052476;28;20196;-79
2024/01/16 12:58:42;;;;;;;16.52;3.22;;;24.50;99.90;;;;;;5082880;28;20292;-79
2024/01/16 13:01:29;;;;;;;15.30;2.92;;;24.50;99.90;;;;;;5065714;28;20216;-79
2024/01/16 13:04:00;;;;;;;17.63;3.33;;;24.50;99.90;;;;;;5058000;28;20207;-79